sensor_id;sensor_type;location;lat;lon;timestamp;temperature;humidity
4103;DHT22;2065;49.790;9.620;2023-01-15T00:01:29;13.30;71.40
4103;DHT22;2065;49.790;9.620;2023-01-15T00:03:57;13.40;71.70
4103;DHT22;2065;49.790;9.620;2023-01-15T00:06:26;13.40;71.30
4103;DHT22;2065;49.790;9.620;2023-01-15T00:08:55;13.20;71.50
4103;DHT22;2065;49.790;9.620;2023-01-15T00:11:22;13.40;71.20
4103;DHT22;2065;49.790;9.620;2023-01-15T00:13:49;13.50;71.40
4103;DHT22;2065;49.790;9.620;2023-01-15T00:16:19;13.60;70.70
4103;DHT22;2065;49.790;9.620;2023-01-15T00:18:49;13.70;70.50
4103;DHT22;2065;49.790;9.620;2023-01-15T00:21:16;13.70;70.90
4103;DHT22;2065;49.790;9.620;2023-01-15T00:23:43;13.80;70.20
4103;DHT22;2065;49.790;9.620;2023-01-15T00:26:30;13.70;70.70
4103;DHT22;2065;49.790;9.620;2023-01-15T00:29:16;13.60;71.00
4103;DHT22;2065;49.790;9.620;2023-01-15T00:31:50;13.60;71.30
4103;DHT22;2065;49.790;9.620;2023-01-15T00:34:18;13.70;71.10
4103;DHT22;2065;49.790;9.620;2023-01-15T00:36:46;13.80;70.20
4103;DHT22;2065;49.790;9.620;2023-01-15T00:39:13;14.00;69.80
4103;DHT22;2065;49.790;9.620;2023-01-15T00:41:41;13.70;70.60
4103;DHT22;2065;49.790;9.620;2023-01-15T00:44:09;13.60;71.60
4103;DHT22;2065;49.790;9.620;2023-01-15T00:46:36;13.70;71.10
4103;DHT22;2065;49.790;9.620;2023-01-15T00:49:03;13.80;70.70
4103;DHT22;2065;49.790;9.620;2023-01-15T00:51:31;13.60;71.10
4103;DHT22;2065;49.790;9.620;2023-01-15T00:53:58;13.50;71.80
4103;DHT22;2065;49.790;9.620;2023-01-15T00:56:26;13.70;71.60
4103;DHT22;2065;49.790;9.620;2023-01-15T00:58:55;13.80;70.90
4103;DHT22;2065;49.790;9.620;2023-01-15T01:01:22;13.80;70.20
4103;DHT22;2065;49.790;9.620;2023-01-15T01:03:51;14.00;70.00
4103;DHT22;2065;49.790;9.620;2023-01-15T01:06:22;14.00;69.90
4103;DHT22;2065;49.790;9.620;2023-01-15T01:08:49;14.10;69.90
4103;DHT22;2065;49.790;9.620;2023-01-15T01:11:21;14.20;69.60
4103;DHT22;2065;49.790;9.620;2023-01-15T01:13:54;14.20;69.10
4103;DHT22;2065;49.790;9.620;2023-01-15T01:16:27;14.20;69.20
4103;DHT22;2065;49.790;9.620;2023-01-15T01:18:57;14.00;69.30
4103;DHT22;2065;49.790;9.620;2023-01-15T01:21:25;13.90;69.50
4103;DHT22;2065;49.790;9.620;2023-01-15T01:23:52;13.70;71.00
4103;DHT22;2065;49.790;9.620;2023-01-15T01:26:20;14.00;70.20
4103;DHT22;2065;49.790;9.620;2023-01-15T01:28:51;14.00;69.80
4103;DHT22;2065;49.790;9.620;2023-01-15T01:31:20;14.20;69.10
4103;DHT22;2065;49.790;9.620;2023-01-15T01:33:48;14.30;68.30
4103;DHT22;2065;49.790;9.620;2023-01-15T01:36:15;14.50;68.30
4103;DHT22;2065;49.790;9.620;2023-01-15T01:38:43;14.30;68.60
4103;DHT22;2065;49.790;9.620;2023-01-15T01:41:10;13.90;70.10
4103;DHT22;2065;49.790;9.620;2023-01-15T01:43:52;14.00;70.10
4103;DHT22;2065;49.790;9.620;2023-01-15T01:46:21;14.10;69.60
4103;DHT22;2065;49.790;9.620;2023-01-15T01:48:49;14.10;70.00
4103;DHT22;2065;49.790;9.620;2023-01-15T01:51:19;14.20;70.00
4103;DHT22;2065;49.790;9.620;2023-01-15T01:53:48;14.10;70.20
4103;DHT22;2065;49.790;9.620;2023-01-15T01:56:15;14.10;70.40
4103;DHT22;2065;49.790;9.620;2023-01-15T01:58:46;14.20;70.60
4103;DHT22;2065;49.790;9.620;2023-01-15T02:01:14;14.10;70.50
4103;DHT22;2065;49.790;9.620;2023-01-15T02:03:43;14.00;70.90
4103;DHT22;2065;49.790;9.620;2023-01-15T02:06:12;14.10;71.30
4103;DHT22;2065;49.790;9.620;2023-01-15T02:08:40;14.20;70.80
4103;DHT22;2065;49.790;9.620;2023-01-15T02:11:13;14.30;70.40
4103;DHT22;2065;49.790;9.620;2023-01-15T02:13:52;14.20;69.80
4103;DHT22;2065;49.790;9.620;2023-01-15T02:16:24;14.10;70.50
4103;DHT22;2065;49.790;9.620;2023-01-15T02:18:59;14.00;71.50
4103;DHT22;2065;49.790;9.620;2023-01-15T02:21:35;14.10;70.80
4103;DHT22;2065;49.790;9.620;2023-01-15T02:24:09;14.20;70.20
4103;DHT22;2065;49.790;9.620;2023-01-15T02:27:08;14.00;71.50
4103;DHT22;2065;49.790;9.620;2023-01-15T02:29:46;14.00;70.90
4103;DHT22;2065;49.790;9.620;2023-01-15T02:32:23;14.20;70.60
4103;DHT22;2065;49.790;9.620;2023-01-15T02:34:55;13.80;71.70
4103;DHT22;2065;49.790;9.620;2023-01-15T02:37:26;14.00;71.70
4103;DHT22;2065;49.790;9.620;2023-01-15T02:39:55;14.00;71.50
4103;DHT22;2065;49.790;9.620;2023-01-15T02:42:27;14.10;71.40
4103;DHT22;2065;49.790;9.620;2023-01-15T02:44:57;14.10;71.30
4103;DHT22;2065;49.790;9.620;2023-01-15T02:47:27;14.20;71.30
4103;DHT22;2065;49.790;9.620;2023-01-15T02:50:00;14.50;70.70
4103;DHT22;2065;49.790;9.620;2023-01-15T02:52:38;14.20;70.80
4103;DHT22;2065;49.790;9.620;2023-01-15T02:55:11;14.10;71.80
4103;DHT22;2065;49.790;9.620;2023-01-15T02:57:46;14.20;71.60
4103;DHT22;2065;49.790;9.620;2023-01-15T03:00:18;14.20;71.40
4103;DHT22;2065;49.790;9.620;2023-01-15T03:02:53;14.50;70.60
4103;DHT22;2065;49.790;9.620;2023-01-15T03:05:25;14.50;70.10
4103;DHT22;2065;49.790;9.620;2023-01-15T03:07:55;14.30;70.80
4103;DHT22;2065;49.790;9.620;2023-01-15T03:10:32;14.40;70.90
4103;DHT22;2065;49.790;9.620;2023-01-15T03:13:03;14.40;70.50
4103;DHT22;2065;49.790;9.620;2023-01-15T03:15:45;14.40;70.30
4103;DHT22;2065;49.790;9.620;2023-01-15T03:18:39;14.50;70.00
4103;DHT22;2065;49.790;9.620;2023-01-15T03:21:09;14.60;69.80
4103;DHT22;2065;49.790;9.620;2023-01-15T03:23:43;14.40;70.60
4103;DHT22;2065;49.790;9.620;2023-01-15T03:26:11;14.30;70.80
4103;DHT22;2065;49.790;9.620;2023-01-15T03:28:44;14.30;70.60
4103;DHT22;2065;49.790;9.620;2023-01-15T03:31:11;14.20;70.90
4103;DHT22;2065;49.790;9.620;2023-01-15T03:33:39;14.10;71.30
4103;DHT22;2065;49.790;9.620;2023-01-15T03:36:12;14.20;71.30
4103;DHT22;2065;49.790;9.620;2023-01-15T03:38:43;13.90;71.90
4103;DHT22;2065;49.790;9.620;2023-01-15T03:41:21;13.90;72.70
4103;DHT22;2065;49.790;9.620;2023-01-15T03:44:01;13.90;73.00
4103;DHT22;2065;49.790;9.620;2023-01-15T03:46:44;14.20;72.20
4103;DHT22;2065;49.790;9.620;2023-01-15T03:49:20;14.10;72.10
4103;DHT22;2065;49.790;9.620;2023-01-15T03:51:58;14.00;72.50
4103;DHT22;2065;49.790;9.620;2023-01-15T03:54:36;13.70;73.60
4103;DHT22;2065;49.790;9.620;2023-01-15T03:57:07;13.80;73.40
4103;DHT22;2065;49.790;9.620;2023-01-15T03:59:41;13.40;73.00
4103;DHT22;2065;49.790;9.620;2023-01-15T04:02:11;13.10;71.80
4103;DHT22;2065;49.790;9.620;2023-01-15T04:04:41;13.20;71.60
4103;DHT22;2065;49.790;9.620;2023-01-15T04:07:09;13.30;69.70
4103;DHT22;2065;49.790;9.620;2023-01-15T04:09:37;13.40;69.90
4103;DHT22;2065;49.790;9.620;2023-01-15T04:12:07;13.40;69.90
4103;DHT22;2065;49.790;9.620;2023-01-15T04:14:40;13.30;68.90
4103;DHT22;2065;49.790;9.620;2023-01-15T04:17:11;13.20;69.50
4103;DHT22;2065;49.790;9.620;2023-01-15T04:19:38;13.40;69.90
4103;DHT22;2065;49.790;9.620;2023-01-15T04:22:08;13.60;69.10
4103;DHT22;2065;49.790;9.620;2023-01-15T04:24:36;13.70;68.60
4103;DHT22;2065;49.790;9.620;2023-01-15T04:27:03;13.50;68.60
4103;DHT22;2065;49.790;9.620;2023-01-15T04:29:30;13.60;68.80
4103;DHT22;2065;49.790;9.620;2023-01-15T04:31:58;13.60;68.20
4103;DHT22;2065;49.790;9.620;2023-01-15T04:34:26;13.50;68.30
4103;DHT22;2065;49.790;9.620;2023-01-15T04:36:53;13.50;68.20
4103;DHT22;2065;49.790;9.620;2023-01-15T04:39:20;13.40;68.90
4103;DHT22;2065;49.790;9.620;2023-01-15T04:41:47;13.40;68.40
4103;DHT22;2065;49.790;9.620;2023-01-15T04:44:32;12.90;68.20
4103;DHT22;2065;49.790;9.620;2023-01-15T04:47:01;12.70;69.20
4103;DHT22;2065;49.790;9.620;2023-01-15T04:49:29;12.70;68.70
4103;DHT22;2065;49.790;9.620;2023-01-15T04:51:56;12.70;69.00
4103;DHT22;2065;49.790;9.620;2023-01-15T04:54:23;12.70;68.10
4103;DHT22;2065;49.790;9.620;2023-01-15T04:56:53;12.60;68.00
4103;DHT22;2065;49.790;9.620;2023-01-15T04:59:22;12.60;66.60
4103;DHT22;2065;49.790;9.620;2023-01-15T05:01:50;12.50;67.50
4103;DHT22;2065;49.790;9.620;2023-01-15T05:04:18;12.70;67.80
4103;DHT22;2065;49.790;9.620;2023-01-15T05:06:45;12.60;66.20
4103;DHT22;2065;49.790;9.620;2023-01-15T05:09:12;12.50;65.90
4103;DHT22;2065;49.790;9.620;2023-01-15T05:11:39;12.70;66.50
4103;DHT22;2065;49.790;9.620;2023-01-15T05:14:07;12.50;65.50
4103;DHT22;2065;49.790;9.620;2023-01-15T05:16:34;12.40;66.20
4103;DHT22;2065;49.790;9.620;2023-01-15T05:19:04;12.20;67.10
4103;DHT22;2065;49.790;9.620;2023-01-15T05:21:35;12.20;67.40
4103;DHT22;2065;49.790;9.620;2023-01-15T05:24:04;12.20;66.30
4103;DHT22;2065;49.790;9.620;2023-01-15T05:26:34;12.20;66.00
4103;DHT22;2065;49.790;9.620;2023-01-15T05:29:02;11.80;66.30
4103;DHT22;2065;49.790;9.620;2023-01-15T05:31:30;11.70;66.90
4103;DHT22;2065;49.790;9.620;2023-01-15T05:33:58;11.70;67.50
4103;DHT22;2065;49.790;9.620;2023-01-15T05:36:27;11.90;66.90
4103;DHT22;2065;49.790;9.620;2023-01-15T05:38:57;11.90;66.80
4103;DHT22;2065;49.790;9.620;2023-01-15T05:41:26;11.80;65.30
4103;DHT22;2065;49.790;9.620;2023-01-15T05:44:12;11.50;65.80
4103;DHT22;2065;49.790;9.620;2023-01-15T05:46:41;11.50;65.80
4103;DHT22;2065;49.790;9.620;2023-01-15T05:49:10;11.30;64.70
4103;DHT22;2065;49.790;9.620;2023-01-15T05:51:38;11.20;64.50
4103;DHT22;2065;49.790;9.620;2023-01-15T05:54:10;11.20;66.00
4103;DHT22;2065;49.790;9.620;2023-01-15T05:56:38;11.30;65.20
4103;DHT22;2065;49.790;9.620;2023-01-15T05:59:05;11.20;64.90
4103;DHT22;2065;49.790;9.620;2023-01-15T06:01:33;11.10;65.60
4103;DHT22;2065;49.790;9.620;2023-01-15T06:04:01;11.10;65.90
4103;DHT22;2065;49.790;9.620;2023-01-15T06:06:29;11.30;66.00
4103;DHT22;2065;49.790;9.620;2023-01-15T06:08:56;11.30;64.10
4103;DHT22;2065;49.790;9.620;2023-01-15T06:11:24;11.30;63.40
4103;DHT22;2065;49.790;9.620;2023-01-15T06:13:51;11.20;63.00
4103;DHT22;2065;49.790;9.620;2023-01-15T06:16:18;11.10;63.40
4103;DHT22;2065;49.790;9.620;2023-01-15T06:18:45;11.00;63.60
4103;DHT22;2065;49.790;9.620;2023-01-15T06:21:13;10.90;63.10
4103;DHT22;2065;49.790;9.620;2023-01-15T06:23:40;10.80;63.20
4103;DHT22;2065;49.790;9.620;2023-01-15T06:26:10;10.80;63.30
4103;DHT22;2065;49.790;9.620;2023-01-15T06:28:39;11.00;63.50
4103;DHT22;2065;49.790;9.620;2023-01-15T06:31:08;11.10;63.60
4103;DHT22;2065;49.790;9.620;2023-01-15T06:33:35;11.30;62.90
4103;DHT22;2065;49.790;9.620;2023-01-15T06:36:03;11.50;61.90
4103;DHT22;2065;49.790;9.620;2023-01-15T06:38:30;11.30;60.30
4103;DHT22;2065;49.790;9.620;2023-01-15T06:40:58;11.30;61.80
4103;DHT22;2065;49.790;9.620;2023-01-15T06:43:26;11.10;60.80
4103;DHT22;2065;49.790;9.620;2023-01-15T06:46:11;11.00;61.00
4103;DHT22;2065;49.790;9.620;2023-01-15T06:48:56;11.00;61.60
4103;DHT22;2065;49.790;9.620;2023-01-15T06:51:23;10.90;60.90
4103;DHT22;2065;49.790;9.620;2023-01-15T06:53:50;10.90;62.10
4103;DHT22;2065;49.790;9.620;2023-01-15T06:56:17;10.90;61.70
4103;DHT22;2065;49.790;9.620;2023-01-15T06:58:44;10.90;61.30
4103;DHT22;2065;49.790;9.620;2023-01-15T07:01:14;10.60;62.00
4103;DHT22;2065;49.790;9.620;2023-01-15T07:03:41;10.50;62.70
4103;DHT22;2065;49.790;9.620;2023-01-15T07:06:09;10.70;63.00
4103;DHT22;2065;49.790;9.620;2023-01-15T07:08:38;10.90;62.90
4103;DHT22;2065;49.790;9.620;2023-01-15T07:11:06;11.10;61.20
4103;DHT22;2065;49.790;9.620;2023-01-15T07:13:34;11.30;61.60
4103;DHT22;2065;49.790;9.620;2023-01-15T07:16:02;11.40;61.20
4103;DHT22;2065;49.790;9.620;2023-01-15T07:18:32;11.30;59.50
4103;DHT22;2065;49.790;9.620;2023-01-15T07:20:59;11.30;60.00
4103;DHT22;2065;49.790;9.620;2023-01-15T07:23:27;11.30;61.40
4103;DHT22;2065;49.790;9.620;2023-01-15T07:25:54;11.40;61.20
4103;DHT22;2065;49.790;9.620;2023-01-15T07:28:22;11.60;61.00
4103;DHT22;2065;49.790;9.620;2023-01-15T07:30:50;11.70;60.20
4103;DHT22;2065;49.790;9.620;2023-01-15T07:33:17;11.50;59.80
4103;DHT22;2065;49.790;9.620;2023-01-15T07:35:45;11.50;59.80
4103;DHT22;2065;49.790;9.620;2023-01-15T07:38:12;11.60;59.90
4103;DHT22;2065;49.790;9.620;2023-01-15T07:40:39;11.60;59.40
4103;DHT22;2065;49.790;9.620;2023-01-15T07:43:07;11.40;59.40
4103;DHT22;2065;49.790;9.620;2023-01-15T07:46:03;11.40;59.60
4103;DHT22;2065;49.790;9.620;2023-01-15T07:48:47;11.50;59.60
4103;DHT22;2065;49.790;9.620;2023-01-15T07:51:33;11.60;60.30
4103;DHT22;2065;49.790;9.620;2023-01-15T07:54:01;11.60;60.30
4103;DHT22;2065;49.790;9.620;2023-01-15T07:56:28;11.50;60.00
4103;DHT22;2065;49.790;9.620;2023-01-15T07:58:56;11.70;59.80
4103;DHT22;2065;49.790;9.620;2023-01-15T08:01:23;11.70;60.10
4103;DHT22;2065;49.790;9.620;2023-01-15T08:03:50;11.50;59.70
4103;DHT22;2065;49.790;9.620;2023-01-15T08:06:16;11.50;59.40
4103;DHT22;2065;49.790;9.620;2023-01-15T08:08:45;11.30;59.40
4103;DHT22;2065;49.790;9.620;2023-01-15T08:11:12;11.10;60.40
4103;DHT22;2065;49.790;9.620;2023-01-15T08:13:56;11.20;61.60
4103;DHT22;2065;49.790;9.620;2023-01-15T08:16:40;11.30;61.20
4103;DHT22;2065;49.790;9.620;2023-01-15T08:19:07;11.50;60.90
4103;DHT22;2065;49.790;9.620;2023-01-15T08:21:34;11.60;60.40
4103;DHT22;2065;49.790;9.620;2023-01-15T08:24:03;11.70;60.60
4103;DHT22;2065;49.790;9.620;2023-01-15T08:26:30;11.60;60.10
4103;DHT22;2065;49.790;9.620;2023-01-15T08:28:57;11.50;60.60
4103;DHT22;2065;49.790;9.620;2023-01-15T08:31:24;11.40;60.00
4103;DHT22;2065;49.790;9.620;2023-01-15T08:33:51;11.20;62.10
4103;DHT22;2065;49.790;9.620;2023-01-15T08:36:18;11.30;60.90
4103;DHT22;2065;49.790;9.620;2023-01-15T08:38:47;11.30;60.60
4103;DHT22;2065;49.790;9.620;2023-01-15T08:41:16;11.20;60.10
4103;DHT22;2065;49.790;9.620;2023-01-15T08:43:43;11.00;60.90
4103;DHT22;2065;49.790;9.620;2023-01-15T08:46:10;11.00;61.30
4103;DHT22;2065;49.790;9.620;2023-01-15T08:48:37;11.10;60.60
4103;DHT22;2065;49.790;9.620;2023-01-15T08:51:05;11.10;60.40
4103;DHT22;2065;49.790;9.620;2023-01-15T08:53:32;11.10;59.60
4103;DHT22;2065;49.790;9.620;2023-01-15T08:56:00;11.20;59.80
4103;DHT22;2065;49.790;9.620;2023-01-15T08:58:29;11.10;59.30
4103;DHT22;2065;49.790;9.620;2023-01-15T09:01:03;11.00;60.20
4103;DHT22;2065;49.790;9.620;2023-01-15T09:03:30;10.90;61.20
4103;DHT22;2065;49.790;9.620;2023-01-15T09:05:58;10.90;60.90
4103;DHT22;2065;49.790;9.620;2023-01-15T09:08:25;10.70;61.10
4103;DHT22;2065;49.790;9.620;2023-01-15T09:10:55;10.80;62.00
4103;DHT22;2065;49.790;9.620;2023-01-15T09:13:22;10.90;61.30
4103;DHT22;2065;49.790;9.620;2023-01-15T09:15:51;10.80;60.60
4103;DHT22;2065;49.790;9.620;2023-01-15T09:18:18;10.80;60.60
4103;DHT22;2065;49.790;9.620;2023-01-15T09:20:45;10.60;59.80
4103;DHT22;2065;49.790;9.620;2023-01-15T09:23:13;10.50;60.30
4103;DHT22;2065;49.790;9.620;2023-01-15T09:25:40;10.60;60.90
4103;DHT22;2065;49.790;9.620;2023-01-15T09:28:07;10.50;60.60
4103;DHT22;2065;49.790;9.620;2023-01-15T09:30:34;10.70;60.60
4103;DHT22;2065;49.790;9.620;2023-01-15T09:33:02;10.80;60.90
4103;DHT22;2065;49.790;9.620;2023-01-15T09:35:29;10.60;60.70
4103;DHT22;2065;49.790;9.620;2023-01-15T09:37:56;10.80;60.40
4103;DHT22;2065;49.790;9.620;2023-01-15T09:40:37;10.80;60.10
4103;DHT22;2065;49.790;9.620;2023-01-15T09:43:14;11.00;59.90
4103;DHT22;2065;49.790;9.620;2023-01-15T09:45:48;11.00;60.20
4103;DHT22;2065;49.790;9.620;2023-01-15T09:48:27;10.90;59.90
4103;DHT22;2065;49.790;9.620;2023-01-15T09:51:03;11.00;60.00
4103;DHT22;2065;49.790;9.620;2023-01-15T09:56:25;10.90;60.10
4103;DHT22;2065;49.790;9.620;2023-01-15T09:58:55;10.90;60.10
4103;DHT22;2065;49.790;9.620;2023-01-15T10:01:25;10.80;60.00
4103;DHT22;2065;49.790;9.620;2023-01-15T10:03:58;10.80;60.50
4103;DHT22;2065;49.790;9.620;2023-01-15T10:06:29;10.70;60.90
4103;DHT22;2065;49.790;9.620;2023-01-15T10:09:03;10.70;61.20
4103;DHT22;2065;49.790;9.620;2023-01-15T10:11:39;10.70;61.30
4103;DHT22;2065;49.790;9.620;2023-01-15T10:14:36;10.70;61.70
4103;DHT22;2065;49.790;9.620;2023-01-15T10:17:18;10.70;61.30
4103;DHT22;2065;49.790;9.620;2023-01-15T10:19:48;10.60;61.60
4103;DHT22;2065;49.790;9.620;2023-01-15T10:22:24;10.60;61.70
4103;DHT22;2065;49.790;9.620;2023-01-15T10:24:56;10.80;61.80
4103;DHT22;2065;49.790;9.620;2023-01-15T10:27:25;11.00;61.40
4103;DHT22;2065;49.790;9.620;2023-01-15T10:29:59;11.20;60.30
4103;DHT22;2065;49.790;9.620;2023-01-15T10:32:35;11.30;59.70
4103;DHT22;2065;49.790;9.620;2023-01-15T10:35:21;11.00;60.20
4103;DHT22;2065;49.790;9.620;2023-01-15T10:37:53;10.40;61.70
4103;DHT22;2065;49.790;9.620;2023-01-15T10:43:22;10.60;62.70
4103;DHT22;2065;49.790;9.620;2023-01-15T10:45:52;10.50;62.10
4103;DHT22;2065;49.790;9.620;2023-01-15T10:48:28;10.40;63.80
4103;DHT22;2065;49.790;9.620;2023-01-15T10:51:01;10.40;63.00
4103;DHT22;2065;49.790;9.620;2023-01-15T10:53:34;10.70;63.10
4103;DHT22;2065;49.790;9.620;2023-01-15T10:56:07;10.70;62.40
4103;DHT22;2065;49.790;9.620;2023-01-15T10:58:40;10.40;63.00
4103;DHT22;2065;49.790;9.620;2023-01-15T11:01:12;9.90;65.60
4103;DHT22;2065;49.790;9.620;2023-01-15T11:03:41;9.50;66.40
4103;DHT22;2065;49.790;9.620;2023-01-15T11:06:14;9.40;65.80
4103;DHT22;2065;49.790;9.620;2023-01-15T11:08:44;8.60;64.20
4103;DHT22;2065;49.790;9.620;2023-01-15T11:11:18;8.40;66.80
4103;DHT22;2065;49.790;9.620;2023-01-15T11:13:53;8.10;67.90
4103;DHT22;2065;49.790;9.620;2023-01-15T11:16:39;8.30;69.40
4103;DHT22;2065;49.790;9.620;2023-01-15T11:19:28;8.70;67.90
4103;DHT22;2065;49.790;9.620;2023-01-15T11:22:08;8.90;67.10
4103;DHT22;2065;49.790;9.620;2023-01-15T11:24:37;9.00;67.10
4103;DHT22;2065;49.790;9.620;2023-01-15T11:27:14;9.30;67.50
4103;DHT22;2065;49.790;9.620;2023-01-15T11:29:43;9.60;66.70
4103;DHT22;2065;49.790;9.620;2023-01-15T11:32:21;9.90;65.60
4103;DHT22;2065;49.790;9.620;2023-01-15T11:34:53;9.90;65.00
4103;DHT22;2065;49.790;9.620;2023-01-15T11:37:22;9.80;65.50
4103;DHT22;2065;49.790;9.620;2023-01-15T11:39:56;9.80;65.80
4103;DHT22;2065;49.790;9.620;2023-01-15T11:42:25;9.90;64.50
4103;DHT22;2065;49.790;9.620;2023-01-15T11:45:25;10.00;62.60
4103;DHT22;2065;49.790;9.620;2023-01-15T11:48:25;9.70;62.90
4103;DHT22;2065;49.790;9.620;2023-01-15T11:51:12;9.50;62.00
4103;DHT22;2065;49.790;9.620;2023-01-15T11:53:44;9.20;64.50
4103;DHT22;2065;49.790;9.620;2023-01-15T11:56:15;9.20;64.80
4103;DHT22;2065;49.790;9.620;2023-01-15T11:58:45;9.20;64.80
4103;DHT22;2065;49.790;9.620;2023-01-15T12:01:16;9.20;64.40
4103;DHT22;2065;49.790;9.620;2023-01-15T12:03:46;9.20;65.60
4103;DHT22;2065;49.790;9.620;2023-01-15T12:06:14;9.30;64.30
4103;DHT22;2065;49.790;9.620;2023-01-15T12:08:46;9.20;64.90
4103;DHT22;2065;49.790;9.620;2023-01-15T12:11:24;8.90;63.80
4103;DHT22;2065;49.790;9.620;2023-01-15T12:14:02;8.70;64.00
4103;DHT22;2065;49.790;9.620;2023-01-15T12:16:39;8.80;65.00
4103;DHT22;2065;49.790;9.620;2023-01-15T12:19:11;8.90;64.40
4103;DHT22;2065;49.790;9.620;2023-01-15T12:22:08;8.90;63.40
4103;DHT22;2065;49.790;9.620;2023-01-15T12:25:00;9.10;64.20
4103;DHT22;2065;49.790;9.620;2023-01-15T12:27:45;9.10;63.40
4103;DHT22;2065;49.790;9.620;2023-01-15T12:30:23;9.10;62.70
4103;DHT22;2065;49.790;9.620;2023-01-15T12:32:55;9.00;62.40
4103;DHT22;2065;49.790;9.620;2023-01-15T12:35:28;8.80;64.70
4103;DHT22;2065;49.790;9.620;2023-01-15T12:37:57;9.00;65.00
4103;DHT22;2065;49.790;9.620;2023-01-15T12:40:29;8.90;63.80
4103;DHT22;2065;49.790;9.620;2023-01-15T12:42:58;8.40;64.10
4103;DHT22;2065;49.790;9.620;2023-01-15T12:45:45;8.50;65.00
4103;DHT22;2065;49.790;9.620;2023-01-15T12:48:17;8.50;65.20
4103;DHT22;2065;49.790;9.620;2023-01-15T12:50:46;8.40;65.40
4103;DHT22;2065;49.790;9.620;2023-01-15T12:53:16;8.60;66.00
4103;DHT22;2065;49.790;9.620;2023-01-15T12:55:50;8.90;64.70
4103;DHT22;2065;49.790;9.620;2023-01-15T12:58:33;8.80;64.70
4103;DHT22;2065;49.790;9.620;2023-01-15T13:01:09;8.70;64.60
4103;DHT22;2065;49.790;9.620;2023-01-15T13:03:47;8.70;64.60
4103;DHT22;2065;49.790;9.620;2023-01-15T13:06:16;8.90;65.00
4103;DHT22;2065;49.790;9.620;2023-01-15T13:08:50;8.80;63.80
4103;DHT22;2065;49.790;9.620;2023-01-15T13:11:21;8.80;63.70
4103;DHT22;2065;49.790;9.620;2023-01-15T13:13:49;8.80;63.90
4103;DHT22;2065;49.790;9.620;2023-01-15T13:16:36;8.60;63.60
4103;DHT22;2065;49.790;9.620;2023-01-15T13:19:25;8.60;65.10
4103;DHT22;2065;49.790;9.620;2023-01-15T13:21:59;8.70;63.70
4103;DHT22;2065;49.790;9.620;2023-01-15T13:24:54;8.80;62.40
4103;DHT22;2065;49.790;9.620;2023-01-15T13:27:37;8.80;63.20
4103;DHT22;2065;49.790;9.620;2023-01-15T13:30:35;8.80;62.90
4103;DHT22;2065;49.790;9.620;2023-01-15T13:33:15;9.10;62.90
4103;DHT22;2065;49.790;9.620;2023-01-15T13:35:46;9.20;62.60
4103;DHT22;2065;49.790;9.620;2023-01-15T13:38:17;9.20;63.10
4103;DHT22;2065;49.790;9.620;2023-01-15T13:40:48;9.40;62.90
4103;DHT22;2065;49.790;9.620;2023-01-15T13:43:31;9.70;61.90
4103;DHT22;2065;49.790;9.620;2023-01-15T13:46:00;10.10;59.90
4103;DHT22;2065;49.790;9.620;2023-01-15T13:48:32;10.30;60.00
4103;DHT22;2065;49.790;9.620;2023-01-15T13:51:02;10.50;59.30
4103;DHT22;2065;49.790;9.620;2023-01-15T13:53:31;10.10;58.30
4103;DHT22;2065;49.790;9.620;2023-01-15T13:56:02;10.00;59.50
4103;DHT22;2065;49.790;9.620;2023-01-15T13:58:33;9.90;59.30
4103;DHT22;2065;49.790;9.620;2023-01-15T14:01:07;9.80;61.10
4103;DHT22;2065;49.790;9.620;2023-01-15T14:03:54;9.90;61.30
4103;DHT22;2065;49.790;9.620;2023-01-15T14:06:35;9.90;60.90
4103;DHT22;2065;49.790;9.620;2023-01-15T14:09:03;9.90;60.40
4103;DHT22;2065;49.790;9.620;2023-01-15T14:11:33;9.40;60.90
4103;DHT22;2065;49.790;9.620;2023-01-15T14:14:18;9.20;61.50
4103;DHT22;2065;49.790;9.620;2023-01-15T14:17:01;8.90;62.30
4103;DHT22;2065;49.790;9.620;2023-01-15T14:20:00;8.70;63.00
4103;DHT22;2065;49.790;9.620;2023-01-15T14:22:44;8.40;62.80
4103;DHT22;2065;49.790;9.620;2023-01-15T14:28:21;8.90;63.70
4103;DHT22;2065;49.790;9.620;2023-01-15T14:31:06;9.30;62.40
4103;DHT22;2065;49.790;9.620;2023-01-15T14:33:49;9.20;60.70
4103;DHT22;2065;49.790;9.620;2023-01-15T14:36:22;9.10;62.10
4103;DHT22;2065;49.790;9.620;2023-01-15T14:38:55;9.30;61.00
4103;DHT22;2065;49.790;9.620;2023-01-15T14:41:25;9.60;61.50
4103;DHT22;2065;49.790;9.620;2023-01-15T14:43:54;9.60;61.50
4103;DHT22;2065;49.790;9.620;2023-01-15T14:46:26;9.60;60.10
4103;DHT22;2065;49.790;9.620;2023-01-15T14:48:54;9.60;61.00
4103;DHT22;2065;49.790;9.620;2023-01-15T14:51:25;9.50;60.30
4103;DHT22;2065;49.790;9.620;2023-01-15T14:53:56;9.40;61.10
4103;DHT22;2065;49.790;9.620;2023-01-15T14:56:27;9.40;60.60
4103;DHT22;2065;49.790;9.620;2023-01-15T14:59:01;9.50;60.90
4103;DHT22;2065;49.790;9.620;2023-01-15T15:01:37;9.40;60.30
4103;DHT22;2065;49.790;9.620;2023-01-15T15:04:14;9.00;60.90
4103;DHT22;2065;49.790;9.620;2023-01-15T15:06:47;9.10;60.60
4103;DHT22;2065;49.790;9.620;2023-01-15T15:09:28;9.10;61.90
4103;DHT22;2065;49.790;9.620;2023-01-15T15:12:04;9.30;60.30
4103;DHT22;2065;49.790;9.620;2023-01-15T15:14:47;9.50;60.30
4103;DHT22;2065;49.790;9.620;2023-01-15T15:17:24;9.50;60.40
4103;DHT22;2065;49.790;9.620;2023-01-15T15:19:59;9.50;59.50
4103;DHT22;2065;49.790;9.620;2023-01-15T15:22:30;9.30;60.00
4103;DHT22;2065;49.790;9.620;2023-01-15T15:25:09;9.30;59.60
4103;DHT22;2065;49.790;9.620;2023-01-15T15:27:38;9.50;60.10
4103;DHT22;2065;49.790;9.620;2023-01-15T15:30:06;9.50;59.70
4103;DHT22;2065;49.790;9.620;2023-01-15T15:32:35;9.50;58.70
4103;DHT22;2065;49.790;9.620;2023-01-15T15:35:24;9.40;59.20
4103;DHT22;2065;49.790;9.620;2023-01-15T15:37:52;9.30;59.50
4103;DHT22;2065;49.790;9.620;2023-01-15T15:40:30;9.50;59.00
4103;DHT22;2065;49.790;9.620;2023-01-15T15:43:03;9.60;58.40
4103;DHT22;2065;49.790;9.620;2023-01-15T15:45:53;9.30;58.50
4103;DHT22;2065;49.790;9.620;2023-01-15T15:48:41;9.60;58.30
4103;DHT22;2065;49.790;9.620;2023-01-15T15:51:26;9.70;58.70
4103;DHT22;2065;49.790;9.620;2023-01-15T15:54:12;9.90;58.80
4103;DHT22;2065;49.790;9.620;2023-01-15T15:56:45;9.80;57.30
4103;DHT22;2065;49.790;9.620;2023-01-15T15:59:26;9.70;57.70
4103;DHT22;2065;49.790;9.620;2023-01-15T16:01:53;9.70;58.50
4103;DHT22;2065;49.790;9.620;2023-01-15T16:04:22;9.80;57.40
4103;DHT22;2065;49.790;9.620;2023-01-15T16:06:49;9.70;57.20
4103;DHT22;2065;49.790;9.620;2023-01-15T16:09:21;9.70;58.20
4103;DHT22;2065;49.790;9.620;2023-01-15T16:11:50;9.70;58.00
4103;DHT22;2065;49.790;9.620;2023-01-15T16:14:18;9.60;58.00
4103;DHT22;2065;49.790;9.620;2023-01-15T16:16:55;9.60;57.90
4103;DHT22;2065;49.790;9.620;2023-01-15T16:19:24;9.50;58.20
4103;DHT22;2065;49.790;9.620;2023-01-15T16:21:52;9.70;57.60
4103;DHT22;2065;49.790;9.620;2023-01-15T16:24:25;9.70;57.50
4103;DHT22;2065;49.790;9.620;2023-01-15T16:27:02;9.40;57.40
4103;DHT22;2065;49.790;9.620;2023-01-15T16:29:33;9.20;59.20
4103;DHT22;2065;49.790;9.620;2023-01-15T16:32:09;9.50;58.70
4103;DHT22;2065;49.790;9.620;2023-01-15T16:34:38;9.60;57.50
4103;DHT22;2065;49.790;9.620;2023-01-15T16:37:21;9.50;58.00
4103;DHT22;2065;49.790;9.620;2023-01-15T16:39:49;9.50;58.30
4103;DHT22;2065;49.790;9.620;2023-01-15T16:42:24;9.50;59.40
4103;DHT22;2065;49.790;9.620;2023-01-15T16:44:54;9.30;58.10
4103;DHT22;2065;49.790;9.620;2023-01-15T16:47:24;9.30;57.70
4103;DHT22;2065;49.790;9.620;2023-01-15T16:50:24;8.90;58.80